Track Баргамон Кирилл

Time Latitude Longitude Accuracy (66% radius in meters) Altitude (meters) Speed (km/hour) Bearing (degrees) Battery (%) GPS flag
06:38:08 57.205779 60.114394 0 0 0 0 1 delete
06:38:04 57.205852 60.114273 0 0 0 0 1 delete
06:38:00 57.205940 60.114173 0 0 0 0 1 delete
06:37:56 57.206053 60.114043 0 0 0 0 1 delete
06:37:53 57.206170 60.114029 0 0 0 0 1 delete
06:37:47 57.206382 60.114207 0 0 0 0 1 delete
06:37:43 57.206530 60.114276 0 0 0 0 1 delete
06:37:40 57.206661 60.114263 0 0 0 0 1 delete
06:37:37 57.206777 60.114390 0 0 0 0 1 delete
06:37:33 57.206802 60.114706 0 0 0 0 1 delete
06:37:29 57.206847 60.114915 0 0 0 0 1 delete
06:37:24 57.207033 60.114994 0 0 0 0 1 delete
06:37:22 57.207109 60.114965 0 0 0 0 1 delete
06:37:18 57.207230 60.114994 0 0 0 0 1 delete
06:37:14 57.207349 60.114995 0 0 0 0 1 delete
06:37:09 57.207467 60.115092 0 0 0 0 1 delete
06:37:04 57.207593 60.115166 0 0 0 0 1 delete
06:37:00 57.207661 60.115193 0 0 0 0 1 delete
06:36:56 57.207699 60.115109 0 0 0 0 1 delete
06:36:52 57.207721 60.115029 0 0 0 0 1 delete
06:36:48 57.207753 60.114941 0 0 0 0 1 delete
06:36:41 57.207791 60.114742 0 0 0 0 1 delete
06:36:37 57.207795 60.114605 0 0 0 0 1 delete
06:36:35 57.207808 60.114544 0 0 0 0 1 delete
06:36:34 57.207812 60.114534 0 0 0 0 1 delete
06:36:29 57.207901 60.114528 0 0 0 0 1 delete
06:36:27 57.207950 60.114506 0 0 0 0 1 delete
06:36:23 57.208040 60.114412 0 0 0 0 1 delete
06:36:18 57.208144 60.114301 0 0 0 0 1 delete
06:36:14 57.208160 60.114295 0 0 0 0 1 delete
06:36:12 57.208222 60.114324 0 0 0 0 1 delete
06:36:09 57.208291 60.114562 0 0 0 0 1 delete
06:36:05 57.208283 60.114942 0 0 0 0 1 delete
06:36:01 57.208382 60.115234 0 0 0 0 1 delete
06:35:56 57.208504 60.115516 0 0 0 0 1 delete
06:35:54 57.208567 60.115582 0 0 0 0 1 delete
06:35:49 57.208713 60.115787 0 0 0 0 1 delete
06:35:44 57.208850 60.116048 0 0 0 0 1 delete
06:35:41 57.208898 60.116202 0 0 0 0 1 delete
06:35:37 57.208979 60.116137 0 0 0 0 1 delete
06:35:32 57.208992 60.116195 0 0 0 0 1 delete
06:35:29 57.209008 60.116372 0 0 0 0 1 delete
06:35:25 57.208917 60.116809 0 0 0 0 1 delete
06:35:23 57.208877 60.116995 0 0 0 0 1 delete
06:35:19 57.208952 60.117150 0 0 0 0 1 delete
06:35:14 57.209016 60.117075 0 0 0 0 1 delete
06:35:13 57.209038 60.117073 0 0 0 0 1 delete
06:35:09 57.209118 60.117100 0 0 0 0 1 delete
06:35:04 57.209259 60.117151 0 0 0 0 1 delete
06:35:00 57.209383 60.117142 0 0 0 0 1 delete